sensor_id;sensor_type;location;lat;lon;timestamp;P1;durP1;ratioP1;P2;durP2;ratioP2
55678;SDS011;41573;51.446;-2.018;2023-01-29T13:24:37;1.77;;;1.20;;
55678;SDS011;41573;51.446;-2.018;2023-01-29T13:27:05;2.35;;;1.30;;
55678;SDS011;41573;51.446;-2.018;2023-01-29T13:29:31;3.25;;;1.10;;
55678;SDS011;41573;51.446;-2.018;2023-01-29T13:31:58;1.08;;;0.80;;
55678;SDS011;41573;51.446;-2.018;2023-01-29T13:34:36;0.73;;;0.73;;
55678;SDS011;41573;51.446;-2.018;2023-01-29T13:37:10;1.40;;;0.82;;
55678;SDS011;41573;51.446;-2.018;2023-01-29T13:39:49;1.17;;;0.90;;
55678;SDS011;41573;51.446;-2.018;2023-01-29T13:42:24;0.95;;;0.70;;
55678;SDS011;41573;51.446;-2.018;2023-01-29T13:45:00;2.45;;;0.80;;
55678;SDS011;41573;51.446;-2.018;2023-01-29T13:47:30;3.35;;;0.80;;
55678;SDS011;41573;51.446;-2.018;2023-01-29T13:50:05;4.75;;;0.88;;
55678;SDS011;41573;51.446;-2.018;2023-01-29T13:52:38;4.68;;;0.90;;
55678;SDS011;41573;51.446;-2.018;2023-01-29T14:07:55;1.58;;;0.80;;
55678;SDS011;41573;51.446;-2.018;2023-01-29T14:10:26;1.77;;;1.00;;
55678;SDS011;41573;51.446;-2.018;2023-01-29T14:18:26;1.38;;;0.70;;
55678;SDS011;41573;51.446;-2.018;2023-01-29T14:21:03;1.55;;;0.77;;
55678;SDS011;41573;51.446;-2.018;2023-01-29T14:31:51;1.50;;;0.82;;
55678;SDS011;41573;51.446;-2.018;2023-01-29T14:36:48;2.80;;;0.65;;
55678;SDS011;41573;51.446;-2.018;2023-01-29T14:45:31;0.30;;;0.30;;
55678;SDS011;41573;51.446;-2.018;2023-01-29T14:51:09;0.40;;;0.40;;
55678;SDS011;41573;51.446;-2.018;2023-01-29T14:53:50;0.52;;;0.40;;
55678;SDS011;41573;51.446;-2.018;2023-01-29T14:56:27;1.42;;;1.23;;
55678;SDS011;41573;51.446;-2.018;2023-01-29T14:59:19;0.70;;;0.65;;
55678;SDS011;41573;51.446;-2.018;2023-01-29T15:01:54;1.00;;;0.80;;
55678;SDS011;41573;51.446;-2.018;2023-01-29T15:04:44;1.35;;;0.90;;
55678;SDS011;41573;51.446;-2.018;2023-01-29T15:07:18;3.75;;;0.90;;
55678;SDS011;41573;51.446;-2.018;2023-01-29T15:10:15;0.77;;;0.77;;
55678;SDS011;41573;51.446;-2.018;2023-01-29T15:15:46;1.75;;;1.08;;
55678;SDS011;41573;51.446;-2.018;2023-01-29T15:21:03;1.85;;;1.35;;
55678;SDS011;41573;51.446;-2.018;2023-01-29T15:23:38;1.48;;;0.95;;
55678;SDS011;41573;51.446;-2.018;2023-01-29T15:26:16;2.75;;;1.15;;
55678;SDS011;41573;51.446;-2.018;2023-01-29T15:28:44;4.13;;;1.40;;
55678;SDS011;41573;51.446;-2.018;2023-01-29T15:31:13;1.95;;;1.20;;
55678;SDS011;41573;51.446;-2.018;2023-01-29T15:33:43;3.15;;;1.02;;
55678;SDS011;41573;51.446;-2.018;2023-01-29T15:36:21;2.17;;;1.30;;
55678;SDS011;41573;51.446;-2.018;2023-01-29T15:41:36;2.30;;;1.70;;
55678;SDS011;41573;51.446;-2.018;2023-01-29T15:44:02;3.50;;;1.95;;
55678;SDS011;41573;51.446;-2.018;2023-01-29T15:46:34;3.28;;;2.20;;
55678;SDS011;41573;51.446;-2.018;2023-01-29T15:49:05;4.35;;;2.28;;
55678;SDS011;41573;51.446;-2.018;2023-01-29T15:51:33;4.70;;;2.05;;
